sensor_id;sensor_type;location;lat;lon;timestamp;P1;durP1;ratioP1;P2;durP2;ratioP2
13269;SDS011;6703;51.994;7.570;2022-11-15T00:01:00;17.20;;;8.02;;
13269;SDS011;6703;51.994;7.570;2022-11-15T00:03:28;18.55;;;8.50;;
13269;SDS011;6703;51.994;7.570;2022-11-15T00:06:00;17.15;;;7.90;;
13269;SDS011;6703;51.994;7.570;2022-11-15T00:08:30;19.83;;;8.60;;
13269;SDS011;6703;51.994;7.570;2022-11-15T00:10:58;16.55;;;8.48;;
13269;SDS011;6703;51.994;7.570;2022-11-15T00:13:27;14.70;;;7.40;;
13269;SDS011;6703;51.994;7.570;2022-11-15T00:15:58;19.63;;;8.27;;
13269;SDS011;6703;51.994;7.570;2022-11-15T00:18:26;19.00;;;8.30;;
13269;SDS011;6703;51.994;7.570;2022-11-15T00:20:54;16.73;;;7.80;;
13269;SDS011;6703;51.994;7.570;2022-11-15T00:23:22;20.10;;;8.00;;
13269;SDS011;6703;51.994;7.570;2022-11-15T00:25:54;16.52;;;7.82;;
13269;SDS011;6703;51.994;7.570;2022-11-15T00:28:23;16.95;;;7.85;;
13269;SDS011;6703;51.994;7.570;2022-11-15T00:30:51;15.07;;;7.55;;
13269;SDS011;6703;51.994;7.570;2022-11-15T00:33:20;16.47;;;8.30;;
13269;SDS011;6703;51.994;7.570;2022-11-15T00:35:48;16.75;;;8.07;;
13269;SDS011;6703;51.994;7.570;2022-11-15T00:38:16;16.85;;;7.95;;
13269;SDS011;6703;51.994;7.570;2022-11-15T00:40:44;17.50;;;8.18;;
13269;SDS011;6703;51.994;7.570;2022-11-15T00:43:11;16.23;;;7.40;;
13269;SDS011;6703;51.994;7.570;2022-11-15T00:45:39;18.90;;;7.72;;
13269;SDS011;6703;51.994;7.570;2022-11-15T00:48:07;16.38;;;7.80;;
13269;SDS011;6703;51.994;7.570;2022-11-15T00:50:36;17.10;;;7.47;;
13269;SDS011;6703;51.994;7.570;2022-11-15T00:53:04;14.32;;;7.00;;
13269;SDS011;6703;51.994;7.570;2022-11-15T00:55:31;16.67;;;7.65;;
13269;SDS011;6703;51.994;7.570;2022-11-15T00:57:59;20.42;;;6.97;;
13269;SDS011;6703;51.994;7.570;2022-11-15T01:00:27;17.42;;;7.70;;
13269;SDS011;6703;51.994;7.570;2022-11-15T01:02:54;16.88;;;7.97;;
13269;SDS011;6703;51.994;7.570;2022-11-15T01:05:22;14.75;;;7.88;;
13269;SDS011;6703;51.994;7.570;2022-11-15T01:07:52;18.25;;;7.65;;
13269;SDS011;6703;51.994;7.570;2022-11-15T01:10:20;15.52;;;7.53;;
13269;SDS011;6703;51.994;7.570;2022-11-15T01:12:48;14.57;;;7.63;;
13269;SDS011;6703;51.994;7.570;2022-11-15T01:15:16;15.15;;;7.30;;
13269;SDS011;6703;51.994;7.570;2022-11-15T01:17:44;17.73;;;7.80;;
13269;SDS011;6703;51.994;7.570;2022-11-15T01:20:12;15.47;;;7.70;;
13269;SDS011;6703;51.994;7.570;2022-11-15T01:22:39;15.88;;;7.50;;
13269;SDS011;6703;51.994;7.570;2022-11-15T01:25:08;16.15;;;7.82;;
13269;SDS011;6703;51.994;7.570;2022-11-15T01:27:36;17.00;;;8.05;;
13269;SDS011;6703;51.994;7.570;2022-11-15T01:30:04;15.07;;;7.40;;
13269;SDS011;6703;51.994;7.570;2022-11-15T01:32:32;17.98;;;7.35;;
13269;SDS011;6703;51.994;7.570;2022-11-15T01:35:01;15.23;;;7.40;;
13269;SDS011;6703;51.994;7.570;2022-11-15T01:37:28;14.03;;;7.43;;
13269;SDS011;6703;51.994;7.570;2022-11-15T01:39:56;15.20;;;7.53;;
13269;SDS011;6703;51.994;7.570;2022-11-15T01:42:25;15.88;;;7.40;;
13269;SDS011;6703;51.994;7.570;2022-11-15T01:44:53;14.80;;;7.93;;
13269;SDS011;6703;51.994;7.570;2022-11-15T01:47:21;15.73;;;6.93;;
13269;SDS011;6703;51.994;7.570;2022-11-15T01:49:52;14.70;;;7.43;;
13269;SDS011;6703;51.994;7.570;2022-11-15T01:52:22;13.88;;;7.22;;
13269;SDS011;6703;51.994;7.570;2022-11-15T01:54:53;22.25;;;6.95;;
13269;SDS011;6703;51.994;7.570;2022-11-15T01:57:25;12.90;;;7.10;;
13269;SDS011;6703;51.994;7.570;2022-11-15T01:59:53;16.33;;;7.27;;
13269;SDS011;6703;51.994;7.570;2022-11-15T02:02:21;16.42;;;7.40;;
13269;SDS011;6703;51.994;7.570;2022-11-15T02:04:49;15.15;;;7.22;;
13269;SDS011;6703;51.994;7.570;2022-11-15T02:07:17;15.65;;;7.28;;
13269;SDS011;6703;51.994;7.570;2022-11-15T02:09:48;14.05;;;6.40;;
13269;SDS011;6703;51.994;7.570;2022-11-15T02:12:18;14.82;;;6.57;;
13269;SDS011;6703;51.994;7.570;2022-11-15T02:14:50;13.57;;;7.03;;
13269;SDS011;6703;51.994;7.570;2022-11-15T02:17:24;17.42;;;7.28;;
13269;SDS011;6703;51.994;7.570;2022-11-15T02:20:25;13.97;;;6.60;;
13269;SDS011;6703;51.994;7.570;2022-11-15T02:23:13;14.75;;;6.82;;
13269;SDS011;6703;51.994;7.570;2022-11-15T02:25:56;13.25;;;6.30;;
13269;SDS011;6703;51.994;7.570;2022-11-15T02:28:35;16.60;;;7.40;;
13269;SDS011;6703;51.994;7.570;2022-11-15T02:31:11;15.27;;;6.65;;
13269;SDS011;6703;51.994;7.570;2022-11-15T02:33:42;13.20;;;6.72;;
13269;SDS011;6703;51.994;7.570;2022-11-15T02:36:15;15.55;;;6.75;;
13269;SDS011;6703;51.994;7.570;2022-11-15T02:38:46;13.43;;;6.57;;
13269;SDS011;6703;51.994;7.570;2022-11-15T02:41:19;15.50;;;6.97;;
13269;SDS011;6703;51.994;7.570;2022-11-15T02:43:48;16.30;;;7.35;;
13269;SDS011;6703;51.994;7.570;2022-11-15T02:46:26;14.35;;;6.57;;
13269;SDS011;6703;51.994;7.570;2022-11-15T02:49:11;15.90;;;6.90;;
13269;SDS011;6703;51.994;7.570;2022-11-15T02:51:39;17.75;;;6.90;;
13269;SDS011;6703;51.994;7.570;2022-11-15T02:54:10;14.07;;;6.22;;
13269;SDS011;6703;51.994;7.570;2022-11-15T02:56:39;13.83;;;7.00;;
13269;SDS011;6703;51.994;7.570;2022-11-15T02:59:11;16.15;;;6.93;;
13269;SDS011;6703;51.994;7.570;2022-11-15T03:01:48;14.13;;;6.85;;
13269;SDS011;6703;51.994;7.570;2022-11-15T03:04:23;12.95;;;5.68;;
13269;SDS011;6703;51.994;7.570;2022-11-15T03:07:00;15.18;;;6.60;;
13269;SDS011;6703;51.994;7.570;2022-11-15T03:09:33;14.02;;;7.00;;
13269;SDS011;6703;51.994;7.570;2022-11-15T03:12:03;13.93;;;6.38;;
13269;SDS011;6703;51.994;7.570;2022-11-15T03:14:34;14.93;;;6.53;;
13269;SDS011;6703;51.994;7.570;2022-11-15T03:17:07;14.88;;;6.50;;
13269;SDS011;6703;51.994;7.570;2022-11-15T03:19:43;12.77;;;6.65;;
13269;SDS011;6703;51.994;7.570;2022-11-15T03:22:15;13.02;;;7.05;;
13269;SDS011;6703;51.994;7.570;2022-11-15T03:24:44;14.47;;;6.43;;
13269;SDS011;6703;51.994;7.570;2022-11-15T03:27:13;12.45;;;6.35;;
13269;SDS011;6703;51.994;7.570;2022-11-15T03:29:43;14.38;;;6.93;;
13269;SDS011;6703;51.994;7.570;2022-11-15T03:32:14;16.55;;;6.90;;
13269;SDS011;6703;51.994;7.570;2022-11-15T03:34:45;13.38;;;6.47;;
13269;SDS011;6703;51.994;7.570;2022-11-15T03:37:15;16.00;;;6.70;;
13269;SDS011;6703;51.994;7.570;2022-11-15T03:39:43;14.70;;;6.53;;
13269;SDS011;6703;51.994;7.570;2022-11-15T03:42:14;15.95;;;6.63;;
13269;SDS011;6703;51.994;7.570;2022-11-15T03:44:48;13.27;;;6.35;;
13269;SDS011;6703;51.994;7.570;2022-11-15T03:47:21;16.13;;;6.27;;
13269;SDS011;6703;51.994;7.570;2022-11-15T03:49:52;13.13;;;6.70;;
13269;SDS011;6703;51.994;7.570;2022-11-15T03:52:21;14.60;;;7.15;;
13269;SDS011;6703;51.994;7.570;2022-11-15T03:54:49;13.18;;;5.95;;
13269;SDS011;6703;51.994;7.570;2022-11-15T03:57:18;14.30;;;6.10;;
13269;SDS011;6703;51.994;7.570;2022-11-15T03:59:46;11.40;;;6.22;;
13269;SDS011;6703;51.994;7.570;2022-11-15T04:02:14;16.35;;;6.63;;
13269;SDS011;6703;51.994;7.570;2022-11-15T04:04:43;11.65;;;6.00;;
13269;SDS011;6703;51.994;7.570;2022-11-15T04:07:10;12.02;;;6.20;;
13269;SDS011;6703;51.994;7.570;2022-11-15T04:09:38;11.90;;;6.37;;
13269;SDS011;6703;51.994;7.570;2022-11-15T04:12:20;11.65;;;5.40;;
13269;SDS011;6703;51.994;7.570;2022-11-15T04:14:58;13.70;;;6.47;;
13269;SDS011;6703;51.994;7.570;2022-11-15T04:17:37;13.52;;;6.03;;
13269;SDS011;6703;51.994;7.570;2022-11-15T04:20:08;14.43;;;6.10;;
13269;SDS011;6703;51.994;7.570;2022-11-15T04:22:55;12.45;;;6.50;;
13269;SDS011;6703;51.994;7.570;2022-11-15T04:25:40;13.50;;;6.07;;
13269;SDS011;6703;51.994;7.570;2022-11-15T04:28:09;16.45;;;5.70;;
13269;SDS011;6703;51.994;7.570;2022-11-15T04:30:37;12.30;;;5.88;;
13269;SDS011;6703;51.994;7.570;2022-11-15T04:33:05;13.27;;;5.70;;
13269;SDS011;6703;51.994;7.570;2022-11-15T04:35:36;12.82;;;6.25;;
13269;SDS011;6703;51.994;7.570;2022-11-15T04:38:06;12.68;;;5.75;;
13269;SDS011;6703;51.994;7.570;2022-11-15T04:40:35;17.80;;;6.47;;
13269;SDS011;6703;51.994;7.570;2022-11-15T04:43:03;11.35;;;5.25;;
13269;SDS011;6703;51.994;7.570;2022-11-15T04:45:31;14.77;;;5.70;;
13269;SDS011;6703;51.994;7.570;2022-11-15T04:47:58;11.93;;;6.07;;
13269;SDS011;6703;51.994;7.570;2022-11-15T04:50:26;12.25;;;5.97;;
13269;SDS011;6703;51.994;7.570;2022-11-15T04:52:55;11.93;;;5.68;;
13269;SDS011;6703;51.994;7.570;2022-11-15T04:55:23;15.13;;;5.80;;
13269;SDS011;6703;51.994;7.570;2022-11-15T04:57:56;12.48;;;5.47;;
13269;SDS011;6703;51.994;7.570;2022-11-15T05:00:27;11.37;;;5.80;;
13269;SDS011;6703;51.994;7.570;2022-11-15T05:02:55;12.95;;;5.97;;
13269;SDS011;6703;51.994;7.570;2022-11-15T05:05:41;14.75;;;5.80;;
13269;SDS011;6703;51.994;7.570;2022-11-15T05:08:10;11.82;;;5.70;;
13269;SDS011;6703;51.994;7.570;2022-11-15T05:10:37;12.25;;;5.88;;
13269;SDS011;6703;51.994;7.570;2022-11-15T05:13:05;13.10;;;5.50;;
13269;SDS011;6703;51.994;7.570;2022-11-15T05:15:32;13.85;;;5.90;;
13269;SDS011;6703;51.994;7.570;2022-11-15T05:18:00;12.80;;;5.43;;
13269;SDS011;6703;51.994;7.570;2022-11-15T05:20:29;16.00;;;5.95;;
13269;SDS011;6703;51.994;7.570;2022-11-15T05:22:56;13.43;;;6.13;;
13269;SDS011;6703;51.994;7.570;2022-11-15T05:25:26;11.23;;;5.88;;
13269;SDS011;6703;51.994;7.570;2022-11-15T05:27:54;10.83;;;5.43;;
13269;SDS011;6703;51.994;7.570;2022-11-15T05:30:22;13.02;;;6.05;;
13269;SDS011;6703;51.994;7.570;2022-11-15T05:32:49;15.68;;;5.50;;
13269;SDS011;6703;51.994;7.570;2022-11-15T05:35:18;13.30;;;6.50;;
13269;SDS011;6703;51.994;7.570;2022-11-15T05:37:47;14.85;;;5.85;;
13269;SDS011;6703;51.994;7.570;2022-11-15T05:40:15;11.55;;;5.57;;
13269;SDS011;6703;51.994;7.570;2022-11-15T05:45:13;12.70;;;5.37;;
13269;SDS011;6703;51.994;7.570;2022-11-15T05:47:41;12.57;;;5.72;;
13269;SDS011;6703;51.994;7.570;2022-11-15T05:50:10;15.57;;;5.23;;
13269;SDS011;6703;51.994;7.570;2022-11-15T05:52:38;16.75;;;5.40;;
13269;SDS011;6703;51.994;7.570;2022-11-15T05:55:07;13.23;;;4.97;;
13269;SDS011;6703;51.994;7.570;2022-11-15T05:57:35;10.75;;;5.38;;
13269;SDS011;6703;51.994;7.570;2022-11-15T06:00:05;13.57;;;5.10;;
13269;SDS011;6703;51.994;7.570;2022-11-15T06:02:35;13.50;;;4.93;;
13269;SDS011;6703;51.994;7.570;2022-11-15T06:05:04;12.15;;;4.80;;
13269;SDS011;6703;51.994;7.570;2022-11-15T06:07:31;11.60;;;5.47;;
13269;SDS011;6703;51.994;7.570;2022-11-15T06:09:59;9.37;;;4.80;;
13269;SDS011;6703;51.994;7.570;2022-11-15T06:12:26;13.20;;;5.45;;
13269;SDS011;6703;51.994;7.570;2022-11-15T06:14:54;13.10;;;5.15;;
13269;SDS011;6703;51.994;7.570;2022-11-15T06:17:23;10.88;;;4.90;;
13269;SDS011;6703;51.994;7.570;2022-11-15T06:19:51;13.07;;;5.15;;
13269;SDS011;6703;51.994;7.570;2022-11-15T06:22:19;10.63;;;4.63;;
13269;SDS011;6703;51.994;7.570;2022-11-15T06:24:46;11.32;;;5.20;;
13269;SDS011;6703;51.994;7.570;2022-11-15T06:27:15;10.65;;;4.60;;
13269;SDS011;6703;51.994;7.570;2022-11-15T06:29:42;10.85;;;5.10;;
13269;SDS011;6703;51.994;7.570;2022-11-15T06:32:10;11.27;;;5.00;;
13269;SDS011;6703;51.994;7.570;2022-11-15T06:34:39;12.80;;;5.25;;
13269;SDS011;6703;51.994;7.570;2022-11-15T06:37:06;12.10;;;5.50;;
13269;SDS011;6703;51.994;7.570;2022-11-15T06:39:34;10.53;;;5.10;;
13269;SDS011;6703;51.994;7.570;2022-11-15T06:42:01;14.88;;;5.60;;
13269;SDS011;6703;51.994;7.570;2022-11-15T06:44:29;10.75;;;5.20;;
13269;SDS011;6703;51.994;7.570;2022-11-15T06:46:57;10.10;;;5.03;;
13269;SDS011;6703;51.994;7.570;2022-11-15T06:49:24;8.82;;;4.63;;
13269;SDS011;6703;51.994;7.570;2022-11-15T06:51:57;12.30;;;5.70;;
13269;SDS011;6703;51.994;7.570;2022-11-15T06:54:25;10.97;;;5.20;;
13269;SDS011;6703;51.994;7.570;2022-11-15T06:56:53;11.95;;;5.00;;
13269;SDS011;6703;51.994;7.570;2022-11-15T06:59:21;11.43;;;5.30;;
13269;SDS011;6703;51.994;7.570;2022-11-15T07:01:48;9.57;;;5.00;;
13269;SDS011;6703;51.994;7.570;2022-11-15T07:04:16;15.67;;;5.53;;
13269;SDS011;6703;51.994;7.570;2022-11-15T07:06:45;9.48;;;5.35;;
13269;SDS011;6703;51.994;7.570;2022-11-15T07:09:15;10.57;;;5.43;;
13269;SDS011;6703;51.994;7.570;2022-11-15T07:11:43;14.57;;;5.50;;
13269;SDS011;6703;51.994;7.570;2022-11-15T07:14:10;10.10;;;5.32;;
13269;SDS011;6703;51.994;7.570;2022-11-15T07:16:38;12.18;;;6.05;;
13269;SDS011;6703;51.994;7.570;2022-11-15T07:19:05;10.77;;;5.57;;
13269;SDS011;6703;51.994;7.570;2022-11-15T07:21:34;11.77;;;5.83;;
13269;SDS011;6703;51.994;7.570;2022-11-15T07:24:02;11.68;;;6.00;;
13269;SDS011;6703;51.994;7.570;2022-11-15T07:26:31;14.57;;;6.13;;
13269;SDS011;6703;51.994;7.570;2022-11-15T07:28:59;9.05;;;5.28;;
13269;SDS011;6703;51.994;7.570;2022-11-15T07:31:27;10.30;;;5.38;;
13269;SDS011;6703;51.994;7.570;2022-11-15T07:33:56;13.47;;;5.40;;
13269;SDS011;6703;51.994;7.570;2022-11-15T07:36:24;9.40;;;5.27;;
13269;SDS011;6703;51.994;7.570;2022-11-15T07:38:51;12.88;;;5.15;;
13269;SDS011;6703;51.994;7.570;2022-11-15T07:41:19;8.40;;;4.60;;
13269;SDS011;6703;51.994;7.570;2022-11-15T07:43:48;9.50;;;5.05;;
13269;SDS011;6703;51.994;7.570;2022-11-15T07:46:18;7.95;;;5.00;;
13269;SDS011;6703;51.994;7.570;2022-11-15T07:48:46;10.25;;;5.38;;
13269;SDS011;6703;51.994;7.570;2022-11-15T07:51:13;10.25;;;5.57;;
13269;SDS011;6703;51.994;7.570;2022-11-15T07:53:42;8.52;;;4.80;;
13269;SDS011;6703;51.994;7.570;2022-11-15T07:56:09;13.23;;;5.38;;
13269;SDS011;6703;51.994;7.570;2022-11-15T07:58:37;12.02;;;4.70;;
13269;SDS011;6703;51.994;7.570;2022-11-15T08:01:07;10.85;;;5.25;;
13269;SDS011;6703;51.994;7.570;2022-11-15T08:03:36;10.82;;;5.57;;
13269;SDS011;6703;51.994;7.570;2022-11-15T08:06:04;8.98;;;4.82;;
13269;SDS011;6703;51.994;7.570;2022-11-15T08:08:32;9.27;;;4.70;;
13269;SDS011;6703;51.994;7.570;2022-11-15T08:11:00;10.73;;;5.43;;
13269;SDS011;6703;51.994;7.570;2022-11-15T08:13:28;11.52;;;5.22;;
13269;SDS011;6703;51.994;7.570;2022-11-15T08:15:57;11.10;;;5.10;;
13269;SDS011;6703;51.994;7.570;2022-11-15T08:18:27;8.52;;;4.88;;
13269;SDS011;6703;51.994;7.570;2022-11-15T08:20:58;10.88;;;5.50;;
13269;SDS011;6703;51.994;7.570;2022-11-15T08:23:26;8.02;;;4.88;;
13269;SDS011;6703;51.994;7.570;2022-11-15T08:25:58;11.20;;;4.65;;
13269;SDS011;6703;51.994;7.570;2022-11-15T08:28:28;8.15;;;4.75;;
13269;SDS011;6703;51.994;7.570;2022-11-15T08:30:56;12.07;;;5.05;;
13269;SDS011;6703;51.994;7.570;2022-11-15T08:33:24;7.80;;;4.43;;
13269;SDS011;6703;51.994;7.570;2022-11-15T08:35:55;10.03;;;4.60;;
13269;SDS011;6703;51.994;7.570;2022-11-15T08:38:24;8.50;;;4.50;;
13269;SDS011;6703;51.994;7.570;2022-11-15T08:40:52;8.63;;;4.68;;
13269;SDS011;6703;51.994;7.570;2022-11-15T08:43:20;7.50;;;4.10;;
13269;SDS011;6703;51.994;7.570;2022-11-15T08:45:48;9.75;;;3.95;;
13269;SDS011;6703;51.994;7.570;2022-11-15T08:48:15;7.85;;;3.92;;
13269;SDS011;6703;51.994;7.570;2022-11-15T08:50:44;7.70;;;3.87;;
13269;SDS011;6703;51.994;7.570;2022-11-15T08:53:13;5.20;;;3.30;;
13269;SDS011;6703;51.994;7.570;2022-11-15T08:55:40;7.75;;;3.38;;
13269;SDS011;6703;51.994;7.570;2022-11-15T08:58:08;5.80;;;3.30;;
13269;SDS011;6703;51.994;7.570;2022-11-15T09:00:36;7.53;;;3.30;;
13269;SDS011;6703;51.994;7.570;2022-11-15T09:03:04;5.85;;;2.85;;
13269;SDS011;6703;51.994;7.570;2022-11-15T09:05:35;4.60;;;2.90;;
13269;SDS011;6703;51.994;7.570;2022-11-15T09:08:03;5.97;;;2.85;;
13269;SDS011;6703;51.994;7.570;2022-11-15T09:10:56;5.25;;;2.75;;
13269;SDS011;6703;51.994;7.570;2022-11-15T09:13:24;9.30;;;2.33;;
13269;SDS011;6703;51.994;7.570;2022-11-15T09:15:52;4.40;;;1.83;;
13269;SDS011;6703;51.994;7.570;2022-11-15T09:18:20;3.03;;;1.60;;
13269;SDS011;6703;51.994;7.570;2022-11-15T09:20:49;3.28;;;1.63;;
13269;SDS011;6703;51.994;7.570;2022-11-15T09:23:17;3.20;;;1.40;;
13269;SDS011;6703;51.994;7.570;2022-11-15T09:25:45;4.85;;;1.60;;
13269;SDS011;6703;51.994;7.570;2022-11-15T09:28:14;4.32;;;1.42;;
13269;SDS011;6703;51.994;7.570;2022-11-15T09:30:42;2.20;;;1.55;;
13269;SDS011;6703;51.994;7.570;2022-11-15T09:33:10;4.82;;;1.10;;
13269;SDS011;6703;51.994;7.570;2022-11-15T09:35:39;3.03;;;1.10;;
13269;SDS011;6703;51.994;7.570;2022-11-15T09:38:07;4.05;;;1.50;;
13269;SDS011;6703;51.994;7.570;2022-11-15T09:40:35;2.45;;;1.30;;
13269;SDS011;6703;51.994;7.570;2022-11-15T09:43:07;1.53;;;1.10;;
13269;SDS011;6703;51.994;7.570;2022-11-15T09:45:50;3.17;;;1.13;;
13269;SDS011;6703;51.994;7.570;2022-11-15T09:48:27;2.75;;;1.50;;
13269;SDS011;6703;51.994;7.570;2022-11-15T09:51:12;2.60;;;0.90;;
13269;SDS011;6703;51.994;7.570;2022-11-15T09:53:42;4.45;;;1.15;;
13269;SDS011;6703;51.994;7.570;2022-11-15T09:56:35;2.83;;;1.80;;
13269;SDS011;6703;51.994;7.570;2022-11-15T09:59:13;2.20;;;1.13;;
13269;SDS011;6703;51.994;7.570;2022-11-15T10:01:49;2.07;;;0.97;;
13269;SDS011;6703;51.994;7.570;2022-11-15T10:04:21;2.40;;;1.27;;
13269;SDS011;6703;51.994;7.570;2022-11-15T10:06:52;4.38;;;1.30;;
13269;SDS011;6703;51.994;7.570;2022-11-15T10:09:24;2.90;;;1.20;;
13269;SDS011;6703;51.994;7.570;2022-11-15T10:11:55;3.05;;;1.20;;
13269;SDS011;6703;51.994;7.570;2022-11-15T10:14:25;2.30;;;1.33;;
13269;SDS011;6703;51.994;7.570;2022-11-15T10:17:01;5.60;;;1.73;;
13269;SDS011;6703;51.994;7.570;2022-11-15T10:19:36;2.85;;;1.48;;
13269;SDS011;6703;51.994;7.570;2022-11-15T10:22:12;3.45;;;1.10;;
13269;SDS011;6703;51.994;7.570;2022-11-15T10:24:46;3.17;;;1.40;;
13269;SDS011;6703;51.994;7.570;2022-11-15T10:27:14;2.33;;;1.00;;
13269;SDS011;6703;51.994;7.570;2022-11-15T10:29:45;3.30;;;1.15;;
13269;SDS011;6703;51.994;7.570;2022-11-15T10:32:15;2.50;;;1.08;;
13269;SDS011;6703;51.994;7.570;2022-11-15T10:34:44;3.78;;;1.23;;
13269;SDS011;6703;51.994;7.570;2022-11-15T10:37:13;2.08;;;1.10;;
13269;SDS011;6703;51.994;7.570;2022-11-15T10:39:41;2.50;;;0.90;;
13269;SDS011;6703;51.994;7.570;2022-11-15T10:42:25;3.75;;;1.20;;
13269;SDS011;6703;51.994;7.570;2022-11-15T10:44:55;2.00;;;1.00;;
13269;SDS011;6703;51.994;7.570;2022-11-15T10:47:27;1.77;;;0.98;;
13269;SDS011;6703;51.994;7.570;2022-11-15T10:50:05;4.95;;;1.13;;
13269;SDS011;6703;51.994;7.570;2022-11-15T10:52:35;3.78;;;1.00;;
13269;SDS011;6703;51.994;7.570;2022-11-15T10:55:05;2.43;;;1.20;;
13269;SDS011;6703;51.994;7.570;2022-11-15T10:57:49;2.30;;;1.30;;
13269;SDS011;6703;51.994;7.570;2022-11-15T11:00:38;3.97;;;0.97;;
13269;SDS011;6703;51.994;7.570;2022-11-15T11:03:08;2.73;;;1.10;;
13269;SDS011;6703;51.994;7.570;2022-11-15T11:06:02;3.90;;;1.00;;
13269;SDS011;6703;51.994;7.570;2022-11-15T11:08:31;1.90;;;0.75;;
13269;SDS011;6703;51.994;7.570;2022-11-15T11:11:00;1.10;;;0.80;;
13269;SDS011;6703;51.994;7.570;2022-11-15T11:13:30;2.42;;;0.93;;
13269;SDS011;6703;51.994;7.570;2022-11-15T11:16:05;3.28;;;0.90;;
13269;SDS011;6703;51.994;7.570;2022-11-15T11:18:48;7.15;;;0.88;;
13269;SDS011;6703;51.994;7.570;2022-11-15T11:21:22;5.13;;;0.80;;
13269;SDS011;6703;51.994;7.570;2022-11-15T11:24:04;3.20;;;0.70;;
13269;SDS011;6703;51.994;7.570;2022-11-15T11:26:38;2.63;;;0.80;;
13269;SDS011;6703;51.994;7.570;2022-11-15T11:29:19;2.55;;;0.80;;
13269;SDS011;6703;51.994;7.570;2022-11-15T11:31:56;3.95;;;1.00;;
13269;SDS011;6703;51.994;7.570;2022-11-15T11:34:31;2.80;;;0.68;;
13269;SDS011;6703;51.994;7.570;2022-11-15T11:37:07;4.97;;;1.27;;
13269;SDS011;6703;51.994;7.570;2022-11-15T11:39:40;17.02;;;7.05;;
13269;SDS011;6703;51.994;7.570;2022-11-15T11:42:13;5.75;;;2.22;;
13269;SDS011;6703;51.994;7.570;2022-11-15T11:44:49;4.72;;;2.13;;
13269;SDS011;6703;51.994;7.570;2022-11-15T11:47:21;6.03;;;1.10;;
13269;SDS011;6703;51.994;7.570;2022-11-15T11:49:51;3.40;;;1.17;;
13269;SDS011;6703;51.994;7.570;2022-11-15T11:52:22;1.10;;;0.50;;
13269;SDS011;6703;51.994;7.570;2022-11-15T11:54:55;3.25;;;1.00;;
13269;SDS011;6703;51.994;7.570;2022-11-15T11:57:29;4.45;;;1.60;;
13269;SDS011;6703;51.994;7.570;2022-11-15T12:00:03;8.60;;;3.05;;
13269;SDS011;6703;51.994;7.570;2022-11-15T12:02:39;6.57;;;1.77;;
13269;SDS011;6703;51.994;7.570;2022-11-15T12:05:10;2.00;;;0.80;;
13269;SDS011;6703;51.994;7.570;2022-11-15T12:07:41;1.52;;;0.80;;
13269;SDS011;6703;51.994;7.570;2022-11-15T12:10:15;1.58;;;0.73;;
13269;SDS011;6703;51.994;7.570;2022-11-15T12:12:49;4.35;;;1.20;;
13269;SDS011;6703;51.994;7.570;2022-11-15T12:15:23;4.82;;;1.20;;
13269;SDS011;6703;51.994;7.570;2022-11-15T12:17:53;4.63;;;0.88;;
13269;SDS011;6703;51.994;7.570;2022-11-15T12:20:22;2.13;;;0.70;;
13269;SDS011;6703;51.994;7.570;2022-11-15T12:22:53;6.85;;;0.85;;
13269;SDS011;6703;51.994;7.570;2022-11-15T12:25:25;2.15;;;0.70;;
13269;SDS011;6703;51.994;7.570;2022-11-15T12:27:56;2.53;;;0.70;;
13269;SDS011;6703;51.994;7.570;2022-11-15T12:30:27;2.38;;;0.80;;
13269;SDS011;6703;51.994;7.570;2022-11-15T12:33:16;4.63;;;1.08;;
13269;SDS011;6703;51.994;7.570;2022-11-15T12:35:57;2.83;;;0.57;;
13269;SDS011;6703;51.994;7.570;2022-11-15T12:41:21;2.50;;;0.73;;
13269;SDS011;6703;51.994;7.570;2022-11-15T12:43:51;1.83;;;0.80;;
13269;SDS011;6703;51.994;7.570;2022-11-15T12:46:20;1.08;;;0.50;;
13269;SDS011;6703;51.994;7.570;2022-11-15T12:48:53;2.65;;;1.05;;
13269;SDS011;6703;51.994;7.570;2022-11-15T12:51:22;1.48;;;0.70;;
13269;SDS011;6703;51.994;7.570;2022-11-15T12:54:50;2.22;;;0.70;;
13269;SDS011;6703;51.994;7.570;2022-11-15T13:03:17;3.15;;;0.73;;
13269;SDS011;6703;51.994;7.570;2022-11-15T13:05:59;1.23;;;0.63;;
13269;SDS011;6703;51.994;7.570;2022-11-15T13:08:36;4.47;;;0.70;;
13269;SDS011;6703;51.994;7.570;2022-11-15T13:17:22;4.30;;;1.08;;
13269;SDS011;6703;51.994;7.570;2022-11-15T13:20:20;4.13;;;1.42;;
13269;SDS011;6703;51.994;7.570;2022-11-15T13:22:59;2.87;;;0.90;;
13269;SDS011;6703;51.994;7.570;2022-11-15T13:25:43;2.00;;;0.85;;
13269;SDS011;6703;51.994;7.570;2022-11-15T13:28:20;17.88;;;6.30;;
13269;SDS011;6703;51.994;7.570;2022-11-15T13:30:51;4.00;;;1.52;;
13269;SDS011;6703;51.994;7.570;2022-11-15T13:33:20;2.60;;;0.80;;
13269;SDS011;6703;51.994;7.570;2022-11-15T13:35:51;5.28;;;0.93;;
13269;SDS011;6703;51.994;7.570;2022-11-15T13:38:27;2.47;;;0.60;;
13269;SDS011;6703;51.994;7.570;2022-11-15T13:40:56;2.20;;;0.75;;
13269;SDS011;6703;51.994;7.570;2022-11-15T13:47:02;2.00;;;0.77;;
13269;SDS011;6703;51.994;7.570;2022-11-15T13:49:32;1.23;;;0.70;;
13269;SDS011;6703;51.994;7.570;2022-11-15T13:52:04;1.27;;;0.70;;
13269;SDS011;6703;51.994;7.570;2022-11-15T13:54:36;1.80;;;1.03;;
13269;SDS011;6703;51.994;7.570;2022-11-15T13:57:09;3.00;;;1.17;;
13269;SDS011;6703;51.994;7.570;2022-11-15T13:59:44;3.20;;;1.02;;
13269;SDS011;6703;51.994;7.570;2022-11-15T14:02:14;4.50;;;0.98;;
13269;SDS011;6703;51.994;7.570;2022-11-15T14:04:46;2.47;;;0.60;;
13269;SDS011;6703;51.994;7.570;2022-11-15T14:07:19;2.20;;;0.75;;
13269;SDS011;6703;51.994;7.570;2022-11-15T14:09:49;1.20;;;0.60;;
13269;SDS011;6703;51.994;7.570;2022-11-15T14:12:22;8.45;;;1.20;;
13269;SDS011;6703;51.994;7.570;2022-11-15T14:14:53;1.80;;;0.73;;
13269;SDS011;6703;51.994;7.570;2022-11-15T14:17:33;1.85;;;0.90;;
13269;SDS011;6703;51.994;7.570;2022-11-15T14:20:02;3.90;;;0.70;;
13269;SDS011;6703;51.994;7.570;2022-11-15T14:22:30;2.90;;;1.50;;
13269;SDS011;6703;51.994;7.570;2022-11-15T14:25:12;7.38;;;0.90;;
13269;SDS011;6703;51.994;7.570;2022-11-15T14:27:43;2.90;;;0.80;;
13269;SDS011;6703;51.994;7.570;2022-11-15T14:30:15;1.83;;;0.87;;
13269;SDS011;6703;51.994;7.570;2022-11-15T14:36:24;4.25;;;0.60;;
13269;SDS011;6703;51.994;7.570;2022-11-15T14:38:52;3.40;;;0.75;;
13269;SDS011;6703;51.994;7.570;2022-11-15T14:41:22;3.63;;;1.20;;
13269;SDS011;6703;51.994;7.570;2022-11-15T14:43:55;2.63;;;0.60;;
13269;SDS011;6703;51.994;7.570;2022-11-15T14:46:23;2.30;;;0.90;;
13269;SDS011;6703;51.994;7.570;2022-11-15T14:48:52;3.53;;;0.50;;
13269;SDS011;6703;51.994;7.570;2022-11-15T14:51:21;38.43;;;5.90;;
13269;SDS011;6703;51.994;7.570;2022-11-15T14:53:48;37.47;;;6.13;;
13269;SDS011;6703;51.994;7.570;2022-11-15T14:56:18;24.88;;;4.40;;
13269;SDS011;6703;51.994;7.570;2022-11-15T14:58:49;8.07;;;2.08;;
13269;SDS011;6703;51.994;7.570;2022-11-15T15:01:17;6.57;;;1.70;;
13269;SDS011;6703;51.994;7.570;2022-11-15T15:03:47;3.15;;;1.00;;
13269;SDS011;6703;51.994;7.570;2022-11-15T15:06:18;4.28;;;0.77;;
13269;SDS011;6703;51.994;7.570;2022-11-15T15:08:46;2.08;;;0.65;;
13269;SDS011;6703;51.994;7.570;2022-11-15T15:11:18;2.85;;;0.90;;
13269;SDS011;6703;51.994;7.570;2022-11-15T15:13:50;5.30;;;0.65;;
13269;SDS011;6703;51.994;7.570;2022-11-15T15:16:18;3.15;;;0.75;;
13269;SDS011;6703;51.994;7.570;2022-11-15T15:18:47;4.13;;;0.90;;
13269;SDS011;6703;51.994;7.570;2022-11-15T15:21:18;3.78;;;0.80;;
13269;SDS011;6703;51.994;7.570;2022-11-15T15:23:48;3.00;;;0.70;;
13269;SDS011;6703;51.994;7.570;2022-11-15T15:26:16;1.83;;;0.55;;
13269;SDS011;6703;51.994;7.570;2022-11-15T15:28:44;2.00;;;0.63;;
13269;SDS011;6703;51.994;7.570;2022-11-15T15:31:15;2.35;;;0.68;;
13269;SDS011;6703;51.994;7.570;2022-11-15T15:33:43;2.20;;;0.60;;
13269;SDS011;6703;51.994;7.570;2022-11-15T15:36:10;5.32;;;0.80;;
13269;SDS011;6703;51.994;7.570;2022-11-15T15:38:40;5.63;;;0.80;;
13269;SDS011;6703;51.994;7.570;2022-11-15T15:41:10;2.50;;;0.60;;